<?xml version="1.0" encoding="UTF-8" standalone="no" ?>
<gpx xmlns="http://www.topografix.com/GPX/1/1" xmlns:xsi="http://www.w3.org/2001/XMLSchema-instance" xsi:schemaLocation="http://www.topografix.com/GPX/1/1 http://www.topografix.com/GPX/1/1/gpx.xsd" version="1.1" creator="VisuGPX - https://www.visugpx.com">
  <metadata>
    <name>Rando pedestre Bouzic 2018</name>
    <desc><![CDATA[Rando pédestre Bouzic organisé par le BOC]]></desc>
  </metadata>
  <trk>
    <name><![CDATA[Bouzic rando pedestre 2018]]></name>
    <trkseg>
      <trkpt lat="44.72609" lon="1.21972">
        <ele>114</ele>
        <time>2018-05-02T18:04:04Z</time>
      </trkpt>
      <trkpt lat="44.72607" lon="1.21969">
        <ele>113</ele>
        <time>2018-05-02T18:04:08Z</time>
      </trkpt>
      <trkpt lat="44.72614" lon="1.21938">
        <ele>112</ele>
        <time>2018-05-02T18:04:12Z</time>
      </trkpt>
      <trkpt lat="44.72628" lon="1.21865">
        <ele>110</ele>
        <time>2018-05-02T18:04:16Z</time>
      </trkpt>
      <trkpt lat="44.72628" lon="1.21788">
        <ele>108</ele>
        <time>2018-05-02T18:04:20Z</time>
      </trkpt>
      <trkpt lat="44.72885" lon="1.21495">
        <ele>118</ele>
        <time>2018-05-02T18:04:44Z</time>
      </trkpt>
      <trkpt lat="44.72897" lon="1.21455">
        <ele>124</ele>
        <time>2018-05-02T18:04:48Z</time>
      </trkpt>
      <trkpt lat="44.72908" lon="1.21391">
        <ele>127</ele>
        <time>2018-05-02T18:04:52Z</time>
      </trkpt>
      <trkpt lat="44.72913" lon="1.21363">
        <ele>131</ele>
        <time>2018-05-02T18:04:56Z</time>
      </trkpt>
      <trkpt lat="44.72886" lon="1.21383">
        <ele>133</ele>
        <time>2018-05-02T18:05:00Z</time>
      </trkpt>
      <trkpt lat="44.72842" lon="1.21429">
        <ele>138</ele>
        <time>2018-05-02T18:05:04Z</time>
      </trkpt>
      <trkpt lat="44.72793" lon="1.21451">
        <ele>144</ele>
        <time>2018-05-02T18:05:08Z</time>
      </trkpt>
      <trkpt lat="44.72749" lon="1.21454">
        <ele>151</ele>
        <time>2018-05-02T18:05:12Z</time>
      </trkpt>
      <trkpt lat="44.72721" lon="1.21422">
        <ele>160</ele>
        <time>2018-05-02T18:05:16Z</time>
      </trkpt>
      <trkpt lat="44.7269" lon="1.21353">
        <ele>166</ele>
        <time>2018-05-02T18:05:20Z</time>
      </trkpt>
      <trkpt lat="44.72667" lon="1.21306">
        <ele>173</ele>
        <time>2018-05-02T18:05:24Z</time>
      </trkpt>
      <trkpt lat="44.72659" lon="1.21273">
        <ele>178</ele>
        <time>2018-05-02T18:05:28Z</time>
      </trkpt>
      <trkpt lat="44.72646" lon="1.21246">
        <ele>183</ele>
        <time>2018-05-02T18:05:32Z</time>
      </trkpt>
      <trkpt lat="44.72641" lon="1.21237">
        <ele>185</ele>
        <time>2018-05-02T18:05:36Z</time>
      </trkpt>
      <trkpt lat="44.72632" lon="1.21223">
        <ele>188</ele>
        <time>2018-05-02T18:05:40Z</time>
      </trkpt>
      <trkpt lat="44.7262" lon="1.21195">
        <ele>189</ele>
        <time>2018-05-02T18:05:44Z</time>
      </trkpt>
      <trkpt lat="44.72613" lon="1.21182">
        <ele>190</ele>
        <time>2018-05-02T18:05:48Z</time>
      </trkpt>
      <trkpt lat="44.7259" lon="1.21172">
        <ele>196</ele>
        <time>2018-05-02T18:05:52Z</time>
      </trkpt>
      <trkpt lat="44.72552" lon="1.21153">
        <ele>205</ele>
        <time>2018-05-02T18:05:56Z</time>
      </trkpt>
      <trkpt lat="44.72534" lon="1.21105">
        <ele>206</ele>
        <time>2018-05-02T18:06:00Z</time>
      </trkpt>
      <trkpt lat="44.72503" lon="1.2107">
        <ele>210</ele>
        <time>2018-05-02T18:06:04Z</time>
      </trkpt>
      <trkpt lat="44.72479" lon="1.21056">
        <ele>217</ele>
        <time>2018-05-02T18:06:08Z</time>
      </trkpt>
      <trkpt lat="44.72459" lon="1.21031">
        <ele>219</ele>
        <time>2018-05-02T18:06:12Z</time>
      </trkpt>
      <trkpt lat="44.7243" lon="1.21023">
        <ele>227</ele>
        <time>2018-05-02T18:06:16Z</time>
      </trkpt>
      <trkpt lat="44.72406" lon="1.21015">
        <ele>230</ele>
        <time>2018-05-02T18:06:20Z</time>
      </trkpt>
      <trkpt lat="44.72377" lon="1.20993">
        <ele>234</ele>
        <time>2018-05-02T18:06:24Z</time>
      </trkpt>
      <trkpt lat="44.72363" lon="1.20982">
        <ele>234</ele>
        <time>2018-05-02T18:06:28Z</time>
      </trkpt>
      <trkpt lat="44.72349" lon="1.20934">
        <ele>238</ele>
        <time>2018-05-02T18:06:32Z</time>
      </trkpt>
      <trkpt lat="44.7233" lon="1.20863">
        <ele>242</ele>
        <time>2018-05-02T18:06:36Z</time>
      </trkpt>
      <trkpt lat="44.72313" lon="1.20799">
        <ele>243</ele>
        <time>2018-05-02T18:06:40Z</time>
      </trkpt>
      <trkpt lat="44.72307" lon="1.20762">
        <ele>245</ele>
        <time>2018-05-02T18:06:44Z</time>
      </trkpt>
      <trkpt lat="44.72322" lon="1.20725">
        <ele>246</ele>
        <time>2018-05-02T18:06:48Z</time>
      </trkpt>
      <trkpt lat="44.72317" lon="1.20675">
        <ele>245</ele>
        <time>2018-05-02T18:06:52Z</time>
      </trkpt>
      <trkpt lat="44.72306" lon="1.2062">
        <ele>245</ele>
        <time>2018-05-02T18:06:56Z</time>
      </trkpt>
      <trkpt lat="44.72307" lon="1.20556">
        <ele>248</ele>
        <time>2018-05-02T18:07:00Z</time>
      </trkpt>
      <trkpt lat="44.72311" lon="1.20492">
        <ele>249</ele>
        <time>2018-05-02T18:07:04Z</time>
      </trkpt>
      <trkpt lat="44.72316" lon="1.20423">
        <ele>248</ele>
        <time>2018-05-02T18:07:08Z</time>
      </trkpt>
      <trkpt lat="44.72312" lon="1.20352">
        <ele>247</ele>
        <time>2018-05-02T18:07:12Z</time>
      </trkpt>
      <trkpt lat="44.72308" lon="1.20287">
        <ele>248</ele>
        <time>2018-05-02T18:07:16Z</time>
      </trkpt>
      <trkpt lat="44.72308" lon="1.20252">
        <ele>250</ele>
        <time>2018-05-02T18:07:20Z</time>
      </trkpt>
      <trkpt lat="44.72308" lon="1.20202">
        <ele>250</ele>
        <time>2018-05-02T18:07:24Z</time>
      </trkpt>
      <trkpt lat="44.72315" lon="1.20157">
        <ele>250</ele>
        <time>2018-05-02T18:07:28Z</time>
      </trkpt>
      <trkpt lat="44.72313" lon="1.20146">
        <ele>251</ele>
        <time>2018-05-02T18:07:32Z</time>
      </trkpt>
      <trkpt lat="44.72301" lon="1.20159">
        <ele>251</ele>
        <time>2018-05-02T18:07:36Z</time>
      </trkpt>
      <trkpt lat="44.72267" lon="1.20224">
        <ele>249</ele>
        <time>2018-05-02T18:07:40Z</time>
      </trkpt>
      <trkpt lat="44.72234" lon="1.20288">
        <ele>248</ele>
        <time>2018-05-02T18:07:44Z</time>
      </trkpt>
      <trkpt lat="44.72218" lon="1.20314">
        <ele>248</ele>
        <time>2018-05-02T18:07:48Z</time>
      </trkpt>
      <trkpt lat="44.72206" lon="1.20346">
        <ele>243</ele>
        <time>2018-05-02T18:07:52Z</time>
      </trkpt>
      <trkpt lat="44.72179" lon="1.20392">
        <ele>245</ele>
        <time>2018-05-02T18:07:56Z</time>
      </trkpt>
      <trkpt lat="44.72156" lon="1.20438">
        <ele>245</ele>
        <time>2018-05-02T18:08:00Z</time>
      </trkpt>
      <trkpt lat="44.72138" lon="1.20477">
        <ele>244</ele>
        <time>2018-05-02T18:08:04Z</time>
      </trkpt>
      <trkpt lat="44.72116" lon="1.20511">
        <ele>242</ele>
        <time>2018-05-02T18:08:08Z</time>
      </trkpt>
      <trkpt lat="44.72098" lon="1.20501">
        <ele>241</ele>
        <time>2018-05-02T18:08:12Z</time>
      </trkpt>
      <trkpt lat="44.72068" lon="1.20476">
        <ele>239</ele>
        <time>2018-05-02T18:08:16Z</time>
      </trkpt>
      <trkpt lat="44.72047" lon="1.20454">
        <ele>238</ele>
        <time>2018-05-02T18:08:20Z</time>
      </trkpt>
      <trkpt lat="44.72026" lon="1.20427">
        <ele>238</ele>
        <time>2018-05-02T18:08:24Z</time>
      </trkpt>
      <trkpt lat="44.72009" lon="1.20416">
        <ele>234</ele>
        <time>2018-05-02T18:08:28Z</time>
      </trkpt>
      <trkpt lat="44.71989" lon="1.20398">
        <ele>233</ele>
        <time>2018-05-02T18:08:32Z</time>
      </trkpt>
      <trkpt lat="44.71973" lon="1.20386">
        <ele>230</ele>
        <time>2018-05-02T18:08:36Z</time>
      </trkpt>
      <trkpt lat="44.71973" lon="1.20369">
        <ele>226</ele>
        <time>2018-05-02T18:08:40Z</time>
      </trkpt>
      <trkpt lat="44.7195" lon="1.20346">
        <ele>226</ele>
        <time>2018-05-02T18:08:44Z</time>
      </trkpt>
      <trkpt lat="44.71922" lon="1.20344">
        <ele>225</ele>
        <time>2018-05-02T18:08:48Z</time>
      </trkpt>
      <trkpt lat="44.71903" lon="1.20348">
        <ele>226</ele>
        <time>2018-05-02T18:08:52Z</time>
      </trkpt>
      <trkpt lat="44.71874" lon="1.20349">
        <ele>227</ele>
        <time>2018-05-02T18:08:56Z</time>
      </trkpt>
      <trkpt lat="44.71843" lon="1.20332">
        <ele>229</ele>
        <time>2018-05-02T18:09:00Z</time>
      </trkpt>
      <trkpt lat="44.71804" lon="1.20303">
        <ele>230</ele>
        <time>2018-05-02T18:09:04Z</time>
      </trkpt>
      <trkpt lat="44.71786" lon="1.20283">
        <ele>237</ele>
        <time>2018-05-02T18:09:08Z</time>
      </trkpt>
      <trkpt lat="44.71786" lon="1.20283">
        <ele>238</ele>
        <time>2018-05-02T18:09:32Z</time>
      </trkpt>
      <trkpt lat="44.71777" lon="1.20325">
        <ele>236</ele>
        <time>2018-05-02T18:10:08Z</time>
      </trkpt>
      <trkpt lat="44.7177" lon="1.20381">
        <ele>236</ele>
        <time>2018-05-02T18:10:12Z</time>
      </trkpt>
      <trkpt lat="44.71773" lon="1.20433">
        <ele>235</ele>
        <time>2018-05-02T18:10:16Z</time>
      </trkpt>
      <trkpt lat="44.71772" lon="1.20462">
        <ele>234</ele>
        <time>2018-05-02T18:10:20Z</time>
      </trkpt>
      <trkpt lat="44.71763" lon="1.20478">
        <ele>233</ele>
        <time>2018-05-02T18:10:24Z</time>
      </trkpt>
      <trkpt lat="44.7176" lon="1.20486">
        <ele>233</ele>
        <time>2018-05-02T18:10:28Z</time>
      </trkpt>
      <trkpt lat="44.71769" lon="1.20491">
        <ele>230</ele>
        <time>2018-05-02T18:10:32Z</time>
      </trkpt>
      <trkpt lat="44.71773" lon="1.20493">
        <ele>232</ele>
        <time>2018-05-02T18:10:36Z</time>
      </trkpt>
      <trkpt lat="44.71775" lon="1.20493">
        <ele>231</ele>
        <time>2018-05-02T18:10:40Z</time>
      </trkpt>
      <trkpt lat="44.71781" lon="1.20509">
        <ele>230</ele>
        <time>2018-05-02T18:10:44Z</time>
      </trkpt>
      <trkpt lat="44.71786" lon="1.2053">
        <ele>228</ele>
        <time>2018-05-02T18:10:48Z</time>
      </trkpt>
      <trkpt lat="44.71789" lon="1.20548">
        <ele>228</ele>
        <time>2018-05-02T18:10:52Z</time>
      </trkpt>
      <trkpt lat="44.71793" lon="1.2058">
        <ele>227</ele>
        <time>2018-05-02T18:10:56Z</time>
      </trkpt>
      <trkpt lat="44.7179" lon="1.20601">
        <ele>224</ele>
        <time>2018-05-02T18:11:00Z</time>
      </trkpt>
      <trkpt lat="44.71769" lon="1.20614">
        <ele>224</ele>
        <time>2018-05-02T18:11:04Z</time>
      </trkpt>
      <trkpt lat="44.71748" lon="1.20621">
        <ele>224</ele>
        <time>2018-05-02T18:11:08Z</time>
      </trkpt>
      <trkpt lat="44.71732" lon="1.20627">
        <ele>223</ele>
        <time>2018-05-02T18:11:12Z</time>
      </trkpt>
      <trkpt lat="44.71716" lon="1.20635">
        <ele>223</ele>
        <time>2018-05-02T18:11:16Z</time>
      </trkpt>
      <trkpt lat="44.71706" lon="1.2063">
        <ele>221</ele>
        <time>2018-05-02T18:11:20Z</time>
      </trkpt>
      <trkpt lat="44.71703" lon="1.20628">
        <ele>220</ele>
        <time>2018-05-02T18:11:24Z</time>
      </trkpt>
      <trkpt lat="44.71698" lon="1.20648">
        <ele>220</ele>
        <time>2018-05-02T18:11:28Z</time>
      </trkpt>
      <trkpt lat="44.71685" lon="1.20696">
        <ele>221</ele>
        <time>2018-05-02T18:11:32Z</time>
      </trkpt>
      <trkpt lat="44.71661" lon="1.20756">
        <ele>221</ele>
        <time>2018-05-02T18:11:36Z</time>
      </trkpt>
      <trkpt lat="44.71665" lon="1.20805">
        <ele>223</ele>
        <time>2018-05-02T18:11:40Z</time>
      </trkpt>
      <trkpt lat="44.71669" lon="1.20836">
        <ele>224</ele>
        <time>2018-05-02T18:11:44Z</time>
      </trkpt>
      <trkpt lat="44.71654" lon="1.2086">
        <ele>225</ele>
        <time>2018-05-02T18:11:48Z</time>
      </trkpt>
      <trkpt lat="44.71636" lon="1.2088">
        <ele>228</ele>
        <time>2018-05-02T18:11:52Z</time>
      </trkpt>
      <trkpt lat="44.71637" lon="1.20884">
        <ele>228</ele>
        <time>2018-05-02T18:11:56Z</time>
      </trkpt>
      <trkpt lat="44.71626" lon="1.20905">
        <ele>231</ele>
        <time>2018-05-02T18:12:00Z</time>
      </trkpt>
      <trkpt lat="44.71619" lon="1.20925">
        <ele>232</ele>
        <time>2018-05-02T18:12:04Z</time>
      </trkpt>
      <trkpt lat="44.7161" lon="1.20943">
        <ele>239</ele>
        <time>2018-05-02T18:12:08Z</time>
      </trkpt>
      <trkpt lat="44.71584" lon="1.20967">
        <ele>245</ele>
        <time>2018-05-02T18:12:12Z</time>
      </trkpt>
      <trkpt lat="44.71569" lon="1.21005">
        <ele>248</ele>
        <time>2018-05-02T18:12:16Z</time>
      </trkpt>
      <trkpt lat="44.7156" lon="1.21022">
        <ele>251</ele>
        <time>2018-05-02T18:12:20Z</time>
      </trkpt>
      <trkpt lat="44.71548" lon="1.21028">
        <ele>255</ele>
        <time>2018-05-02T18:12:24Z</time>
      </trkpt>
      <trkpt lat="44.71529" lon="1.21044">
        <ele>259</ele>
        <time>2018-05-02T18:12:28Z</time>
      </trkpt>
      <trkpt lat="44.71525" lon="1.21047">
        <ele>261</ele>
        <time>2018-05-02T18:12:32Z</time>
      </trkpt>
      <trkpt lat="44.71526" lon="1.21048">
        <ele>263</ele>
        <time>2018-05-02T18:12:44Z</time>
      </trkpt>
      <trkpt lat="44.71517" lon="1.21058">
        <ele>265</ele>
        <time>2018-05-02T18:12:48Z</time>
      </trkpt>
      <trkpt lat="44.71498" lon="1.21078">
        <ele>267</ele>
        <time>2018-05-02T18:12:52Z</time>
      </trkpt>
      <trkpt lat="44.71471" lon="1.21094">
        <ele>269</ele>
        <time>2018-05-02T18:12:56Z</time>
      </trkpt>
      <trkpt lat="44.71463" lon="1.211">
        <ele>270</ele>
        <time>2018-05-02T18:13:00Z</time>
      </trkpt>
      <trkpt lat="44.71463" lon="1.21104">
        <ele>270</ele>
        <time>2018-05-02T18:13:04Z</time>
      </trkpt>
      <trkpt lat="44.71455" lon="1.21146">
        <ele>270</ele>
        <time>2018-05-02T18:13:08Z</time>
      </trkpt>
      <trkpt lat="44.71439" lon="1.21218">
        <ele>271</ele>
        <time>2018-05-02T18:13:12Z</time>
      </trkpt>
      <trkpt lat="44.71419" lon="1.21276">
        <ele>271</ele>
        <time>2018-05-02T18:13:16Z</time>
      </trkpt>
      <trkpt lat="44.71379" lon="1.21326">
        <ele>267</ele>
        <time>2018-05-02T18:13:20Z</time>
      </trkpt>
      <trkpt lat="44.71335" lon="1.21356">
        <ele>267</ele>
        <time>2018-05-02T18:13:24Z</time>
      </trkpt>
      <trkpt lat="44.7128" lon="1.21343">
        <ele>264</ele>
        <time>2018-05-02T18:13:28Z</time>
      </trkpt>
      <trkpt lat="44.71239" lon="1.21345">
        <ele>261</ele>
        <time>2018-05-02T18:13:32Z</time>
      </trkpt>
      <trkpt lat="44.71214" lon="1.21393">
        <ele>257</ele>
        <time>2018-05-02T18:13:36Z</time>
      </trkpt>
      <trkpt lat="44.71219" lon="1.21449">
        <ele>259</ele>
        <time>2018-05-02T18:13:40Z</time>
      </trkpt>
      <trkpt lat="44.71234" lon="1.21522">
        <ele>261</ele>
        <time>2018-05-02T18:13:44Z</time>
      </trkpt>
      <trkpt lat="44.71254" lon="1.2158">
        <ele>264</ele>
        <time>2018-05-02T18:13:48Z</time>
      </trkpt>
      <trkpt lat="44.71249" lon="1.21601">
        <ele>264</ele>
        <time>2018-05-02T18:13:52Z</time>
      </trkpt>
      <trkpt lat="44.71213" lon="1.21579">
        <ele>266</ele>
        <time>2018-05-02T18:13:56Z</time>
      </trkpt>
      <trkpt lat="44.71162" lon="1.21554">
        <ele>270</ele>
        <time>2018-05-02T18:14:00Z</time>
      </trkpt>
      <trkpt lat="44.71111" lon="1.21564">
        <ele>274</ele>
        <time>2018-05-02T18:14:04Z</time>
      </trkpt>
      <trkpt lat="44.71058" lon="1.21575">
        <ele>280</ele>
        <time>2018-05-02T18:14:08Z</time>
      </trkpt>
      <trkpt lat="44.70998" lon="1.21585">
        <ele>287</ele>
        <time>2018-05-02T18:14:12Z</time>
      </trkpt>
      <trkpt lat="44.70937" lon="1.21608">
        <ele>288</ele>
        <time>2018-05-02T18:14:16Z</time>
      </trkpt>
      <trkpt lat="44.70878" lon="1.21654">
        <ele>288</ele>
        <time>2018-05-02T18:14:20Z</time>
      </trkpt>
      <trkpt lat="44.70828" lon="1.21712">
        <ele>287</ele>
        <time>2018-05-02T18:14:24Z</time>
      </trkpt>
      <trkpt lat="44.70788" lon="1.21763">
        <ele>287</ele>
        <time>2018-05-02T18:14:28Z</time>
      </trkpt>
      <trkpt lat="44.70767" lon="1.21827">
        <ele>286</ele>
        <time>2018-05-02T18:14:32Z</time>
      </trkpt>
      <trkpt lat="44.7077" lon="1.21895">
        <ele>284</ele>
        <time>2018-05-02T18:14:36Z</time>
      </trkpt>
      <trkpt lat="44.70788" lon="1.21954">
        <ele>283</ele>
        <time>2018-05-02T18:14:40Z</time>
      </trkpt>
      <trkpt lat="44.70808" lon="1.22013">
        <ele>282</ele>
        <time>2018-05-02T18:14:44Z</time>
      </trkpt>
      <trkpt lat="44.70829" lon="1.22059">
        <ele>283</ele>
        <time>2018-05-02T18:14:48Z</time>
      </trkpt>
      <trkpt lat="44.70851" lon="1.22098">
        <ele>283</ele>
        <time>2018-05-02T18:14:52Z</time>
      </trkpt>
      <trkpt lat="44.70868" lon="1.22137">
        <ele>283</ele>
        <time>2018-05-02T18:14:56Z</time>
      </trkpt>
      <trkpt lat="44.70879" lon="1.22158">
        <ele>282</ele>
        <time>2018-05-02T18:15:00Z</time>
      </trkpt>
      <trkpt lat="44.7089" lon="1.22185">
        <ele>281</ele>
        <time>2018-05-02T18:15:04Z</time>
      </trkpt>
      <trkpt lat="44.70909" lon="1.22219">
        <ele>280</ele>
        <time>2018-05-02T18:15:08Z</time>
      </trkpt>
      <trkpt lat="44.70933" lon="1.2224">
        <ele>279</ele>
        <time>2018-05-02T18:15:12Z</time>
      </trkpt>
      <trkpt lat="44.70964" lon="1.22287">
        <ele>279</ele>
        <time>2018-05-02T18:15:16Z</time>
      </trkpt>
      <trkpt lat="44.7098" lon="1.22361">
        <ele>280</ele>
        <time>2018-05-02T18:15:20Z</time>
      </trkpt>
      <trkpt lat="44.70991" lon="1.22421">
        <ele>281</ele>
        <time>2018-05-02T18:15:24Z</time>
      </trkpt>
      <trkpt lat="44.70998" lon="1.2246">
        <ele>281</ele>
        <time>2018-05-02T18:15:28Z</time>
      </trkpt>
      <trkpt lat="44.71002" lon="1.22487">
        <ele>280</ele>
        <time>2018-05-02T18:15:32Z</time>
      </trkpt>
      <trkpt lat="44.7101" lon="1.22521">
        <ele>282</ele>
        <time>2018-05-02T18:15:36Z</time>
      </trkpt>
      <trkpt lat="44.7102" lon="1.22569">
        <ele>282</ele>
        <time>2018-05-02T18:15:40Z</time>
      </trkpt>
      <trkpt lat="44.71039" lon="1.22577">
        <ele>284</ele>
        <time>2018-05-02T18:15:44Z</time>
      </trkpt>
      <trkpt lat="44.71055" lon="1.22544">
        <ele>287</ele>
        <time>2018-05-02T18:15:48Z</time>
      </trkpt>
      <trkpt lat="44.71059" lon="1.22478">
        <ele>289</ele>
        <time>2018-05-02T18:15:52Z</time>
      </trkpt>
      <trkpt lat="44.71065" lon="1.22405">
        <ele>290</ele>
        <time>2018-05-02T18:15:56Z</time>
      </trkpt>
      <trkpt lat="44.7109" lon="1.22359">
        <ele>288</ele>
        <time>2018-05-02T18:16:00Z</time>
      </trkpt>
      <trkpt lat="44.71134" lon="1.22342">
        <ele>286</ele>
        <time>2018-05-02T18:16:04Z</time>
      </trkpt>
      <trkpt lat="44.71161" lon="1.22313">
        <ele>286</ele>
        <time>2018-05-02T18:16:08Z</time>
      </trkpt>
      <trkpt lat="44.71181" lon="1.22244">
        <ele>286</ele>
        <time>2018-05-02T18:16:12Z</time>
      </trkpt>
      <trkpt lat="44.71198" lon="1.22209">
        <ele>285</ele>
        <time>2018-05-02T18:16:16Z</time>
      </trkpt>
      <trkpt lat="44.71227" lon="1.22203">
        <ele>284</ele>
        <time>2018-05-02T18:16:20Z</time>
      </trkpt>
      <trkpt lat="44.71236" lon="1.22227">
        <ele>284</ele>
        <time>2018-05-02T18:16:24Z</time>
      </trkpt>
      <trkpt lat="44.71225" lon="1.2228">
        <ele>283</ele>
        <time>2018-05-02T18:16:28Z</time>
      </trkpt>
      <trkpt lat="44.71216" lon="1.22317">
        <ele>282</ele>
        <time>2018-05-02T18:16:32Z</time>
      </trkpt>
      <trkpt lat="44.71209" lon="1.22344">
        <ele>280</ele>
        <time>2018-05-02T18:16:36Z</time>
      </trkpt>
      <trkpt lat="44.71197" lon="1.22367">
        <ele>278</ele>
        <time>2018-05-02T18:16:40Z</time>
      </trkpt>
      <trkpt lat="44.7119" lon="1.22386">
        <ele>277</ele>
        <time>2018-05-02T18:16:44Z</time>
      </trkpt>
      <trkpt lat="44.71201" lon="1.22423">
        <ele>271</ele>
        <time>2018-05-02T18:16:48Z</time>
      </trkpt>
      <trkpt lat="44.71234" lon="1.22472">
        <ele>269</ele>
        <time>2018-05-02T18:16:52Z</time>
      </trkpt>
      <trkpt lat="44.7126" lon="1.22489">
        <ele>269</ele>
        <time>2018-05-02T18:16:56Z</time>
      </trkpt>
      <trkpt lat="44.71272" lon="1.22517">
        <ele>272</ele>
        <time>2018-05-02T18:17:00Z</time>
      </trkpt>
      <trkpt lat="44.71285" lon="1.22553">
        <ele>274</ele>
        <time>2018-05-02T18:17:04Z</time>
      </trkpt>
      <trkpt lat="44.71297" lon="1.22585">
        <ele>276</ele>
        <time>2018-05-02T18:17:08Z</time>
      </trkpt>
      <trkpt lat="44.7129" lon="1.22645">
        <ele>279</ele>
        <time>2018-05-02T18:17:12Z</time>
      </trkpt>
      <trkpt lat="44.71276" lon="1.22687">
        <ele>281</ele>
        <time>2018-05-02T18:17:16Z</time>
      </trkpt>
      <trkpt lat="44.71259" lon="1.2274">
        <ele>281</ele>
        <time>2018-05-02T18:17:20Z</time>
      </trkpt>
      <trkpt lat="44.71236" lon="1.22789">
        <ele>282</ele>
        <time>2018-05-02T18:17:24Z</time>
      </trkpt>
      <trkpt lat="44.71224" lon="1.22819">
        <ele>282</ele>
        <time>2018-05-02T18:17:28Z</time>
      </trkpt>
      <trkpt lat="44.71207" lon="1.22824">
        <ele>279</ele>
        <time>2018-05-02T18:17:48Z</time>
      </trkpt>
      <trkpt lat="44.71164" lon="1.22822">
        <ele>280</ele>
        <time>2018-05-02T18:17:52Z</time>
      </trkpt>
      <trkpt lat="44.71123" lon="1.22838">
        <ele>285</ele>
        <time>2018-05-02T18:17:56Z</time>
      </trkpt>
      <trkpt lat="44.71088" lon="1.22876">
        <ele>286</ele>
        <time>2018-05-02T18:18:00Z</time>
      </trkpt>
      <trkpt lat="44.71074" lon="1.22893">
        <ele>288</ele>
        <time>2018-05-02T18:18:04Z</time>
      </trkpt>
      <trkpt lat="44.71071" lon="1.22923">
        <ele>289</ele>
        <time>2018-05-02T18:18:08Z</time>
      </trkpt>
      <trkpt lat="44.71062" lon="1.22984">
        <ele>289</ele>
        <time>2018-05-02T18:18:12Z</time>
      </trkpt>
      <trkpt lat="44.71066" lon="1.23052">
        <ele>290</ele>
        <time>2018-05-02T18:18:16Z</time>
      </trkpt>
      <trkpt lat="44.7107" lon="1.23115">
        <ele>289</ele>
        <time>2018-05-02T18:18:20Z</time>
      </trkpt>
      <trkpt lat="44.71059" lon="1.23193">
        <ele>289</ele>
        <time>2018-05-02T18:18:24Z</time>
      </trkpt>
      <trkpt lat="44.71054" lon="1.23281">
        <ele>286</ele>
        <time>2018-05-02T18:18:28Z</time>
      </trkpt>
      <trkpt lat="44.71054" lon="1.23337">
        <ele>285</ele>
        <time>2018-05-02T18:18:32Z</time>
      </trkpt>
      <trkpt lat="44.71075" lon="1.23385">
        <ele>284</ele>
        <time>2018-05-02T18:18:36Z</time>
      </trkpt>
      <trkpt lat="44.71107" lon="1.23445">
        <ele>283</ele>
        <time>2018-05-02T18:18:40Z</time>
      </trkpt>
      <trkpt lat="44.71123" lon="1.23504">
        <ele>283</ele>
        <time>2018-05-02T18:18:44Z</time>
      </trkpt>
      <trkpt lat="44.71137" lon="1.23575">
        <ele>281</ele>
        <time>2018-05-02T18:18:48Z</time>
      </trkpt>
      <trkpt lat="44.71149" lon="1.23618">
        <ele>279</ele>
        <time>2018-05-02T18:18:52Z</time>
      </trkpt>
      <trkpt lat="44.71162" lon="1.23657">
        <ele>276</ele>
        <time>2018-05-02T18:18:56Z</time>
      </trkpt>
      <trkpt lat="44.71184" lon="1.2372">
        <ele>275</ele>
        <time>2018-05-02T18:19:00Z</time>
      </trkpt>
      <trkpt lat="44.71211" lon="1.23772">
        <ele>274</ele>
        <time>2018-05-02T18:19:04Z</time>
      </trkpt>
      <trkpt lat="44.71231" lon="1.23809">
        <ele>273</ele>
        <time>2018-05-02T18:19:08Z</time>
      </trkpt>
      <trkpt lat="44.71257" lon="1.23815">
        <ele>271</ele>
        <time>2018-05-02T18:19:12Z</time>
      </trkpt>
      <trkpt lat="44.71271" lon="1.23825">
        <ele>268</ele>
        <time>2018-05-02T18:19:16Z</time>
      </trkpt>
      <trkpt lat="44.71296" lon="1.23843">
        <ele>267</ele>
        <time>2018-05-02T18:19:20Z</time>
      </trkpt>
      <trkpt lat="44.71321" lon="1.23907">
        <ele>265</ele>
        <time>2018-05-02T18:19:24Z</time>
      </trkpt>
      <trkpt lat="44.71355" lon="1.23962">
        <ele>262</ele>
        <time>2018-05-02T18:19:28Z</time>
      </trkpt>
      <trkpt lat="44.71397" lon="1.24016">
        <ele>261</ele>
        <time>2018-05-02T18:19:32Z</time>
      </trkpt>
      <trkpt lat="44.71432" lon="1.24056">
        <ele>262</ele>
        <time>2018-05-02T18:19:36Z</time>
      </trkpt>
      <trkpt lat="44.71447" lon="1.24094">
        <ele>261</ele>
        <time>2018-05-02T18:19:40Z</time>
      </trkpt>
      <trkpt lat="44.71457" lon="1.24119">
        <ele>260</ele>
        <time>2018-05-02T18:19:44Z</time>
      </trkpt>
      <trkpt lat="44.71494" lon="1.24118">
        <ele>257</ele>
        <time>2018-05-02T18:19:48Z</time>
      </trkpt>
      <trkpt lat="44.71538" lon="1.24106">
        <ele>252</ele>
        <time>2018-05-02T18:19:52Z</time>
      </trkpt>
      <trkpt lat="44.71579" lon="1.24115">
        <ele>251</ele>
        <time>2018-05-02T18:19:56Z</time>
      </trkpt>
      <trkpt lat="44.71629" lon="1.24138">
        <ele>250</ele>
        <time>2018-05-02T18:20:00Z</time>
      </trkpt>
      <trkpt lat="44.71684" lon="1.24144">
        <ele>249</ele>
        <time>2018-05-02T18:20:04Z</time>
      </trkpt>
      <trkpt lat="44.71742" lon="1.24131">
        <ele>247</ele>
        <time>2018-05-02T18:20:08Z</time>
      </trkpt>
      <trkpt lat="44.71808" lon="1.24127">
        <ele>246</ele>
        <time>2018-05-02T18:20:12Z</time>
      </trkpt>
      <trkpt lat="44.71867" lon="1.24125">
        <ele>245</ele>
        <time>2018-05-02T18:20:16Z</time>
      </trkpt>
      <trkpt lat="44.71917" lon="1.24145">
        <ele>244</ele>
        <time>2018-05-02T18:20:20Z</time>
      </trkpt>
      <trkpt lat="44.71973" lon="1.24168">
        <ele>243</ele>
        <time>2018-05-02T18:20:24Z</time>
      </trkpt>
      <trkpt lat="44.72028" lon="1.24172">
        <ele>242</ele>
        <time>2018-05-02T18:20:28Z</time>
      </trkpt>
      <trkpt lat="44.72066" lon="1.24174">
        <ele>241</ele>
        <time>2018-05-02T18:20:32Z</time>
      </trkpt>
      <trkpt lat="44.72091" lon="1.24177">
        <ele>241</ele>
        <time>2018-05-02T18:20:36Z</time>
      </trkpt>
      <trkpt lat="44.721" lon="1.24175">
        <ele>242</ele>
        <time>2018-05-02T18:20:40Z</time>
      </trkpt>
      <trkpt lat="44.72101" lon="1.24175">
        <ele>241</ele>
        <time>2018-05-02T18:20:56Z</time>
      </trkpt>
      <trkpt lat="44.72114" lon="1.24161">
        <ele>241</ele>
        <time>2018-05-02T18:21:00Z</time>
      </trkpt>
      <trkpt lat="44.72136" lon="1.24141">
        <ele>238</ele>
        <time>2018-05-02T18:21:04Z</time>
      </trkpt>
      <trkpt lat="44.72157" lon="1.24086">
        <ele>236</ele>
        <time>2018-05-02T18:21:08Z</time>
      </trkpt>
      <trkpt lat="44.72176" lon="1.24014">
        <ele>233</ele>
        <time>2018-05-02T18:21:12Z</time>
      </trkpt>
      <trkpt lat="44.72207" lon="1.23967">
        <ele>226</ele>
        <time>2018-05-02T18:21:16Z</time>
      </trkpt>
      <trkpt lat="44.72257" lon="1.2391">
        <ele>224</ele>
        <time>2018-05-02T18:21:20Z</time>
      </trkpt>
      <trkpt lat="44.72306" lon="1.23849">
        <ele>223</ele>
        <time>2018-05-02T18:21:24Z</time>
      </trkpt>
      <trkpt lat="44.72351" lon="1.2378">
        <ele>223</ele>
        <time>2018-05-02T18:21:28Z</time>
      </trkpt>
      <trkpt lat="44.72381" lon="1.23718">
        <ele>224</ele>
        <time>2018-05-02T18:21:32Z</time>
      </trkpt>
      <trkpt lat="44.72393" lon="1.23675">
        <ele>224</ele>
        <time>2018-05-02T18:21:36Z</time>
      </trkpt>
      <trkpt lat="44.72416" lon="1.23673">
        <ele>221</ele>
        <time>2018-05-02T18:21:40Z</time>
      </trkpt>
      <trkpt lat="44.72439" lon="1.23687">
        <ele>220</ele>
        <time>2018-05-02T18:21:44Z</time>
      </trkpt>
      <trkpt lat="44.72468" lon="1.237">
        <ele>220</ele>
        <time>2018-05-02T18:21:48Z</time>
      </trkpt>
      <trkpt lat="44.72499" lon="1.23708">
        <ele>217</ele>
        <time>2018-05-02T18:21:52Z</time>
      </trkpt>
      <trkpt lat="44.72527" lon="1.23725">
        <ele>206</ele>
        <time>2018-05-02T18:21:56Z</time>
      </trkpt>
      <trkpt lat="44.72557" lon="1.23754">
        <ele>203</ele>
        <time>2018-05-02T18:22:00Z</time>
      </trkpt>
      <trkpt lat="44.72588" lon="1.23783">
        <ele>202</ele>
        <time>2018-05-02T18:22:04Z</time>
      </trkpt>
      <trkpt lat="44.72615" lon="1.2382">
        <ele>194</ele>
        <time>2018-05-02T18:22:08Z</time>
      </trkpt>
      <trkpt lat="44.72652" lon="1.23847">
        <ele>190</ele>
        <time>2018-05-02T18:22:12Z</time>
      </trkpt>
      <trkpt lat="44.72688" lon="1.23842">
        <ele>181</ele>
        <time>2018-05-02T18:22:16Z</time>
      </trkpt>
      <trkpt lat="44.72721" lon="1.23797">
        <ele>172</ele>
        <time>2018-05-02T18:22:20Z</time>
      </trkpt>
      <trkpt lat="44.7273" lon="1.23746">
        <ele>163</ele>
        <time>2018-05-02T18:22:24Z</time>
      </trkpt>
      <trkpt lat="44.72744" lon="1.23693">
        <ele>154</ele>
        <time>2018-05-02T18:22:28Z</time>
      </trkpt>
      <trkpt lat="44.72757" lon="1.23644">
        <ele>147</ele>
        <time>2018-05-02T18:22:32Z</time>
      </trkpt>
      <trkpt lat="44.72759" lon="1.23583">
        <ele>135</ele>
        <time>2018-05-02T18:22:36Z</time>
      </trkpt>
      <trkpt lat="44.72758" lon="1.23536">
        <ele>128</ele>
        <time>2018-05-02T18:22:40Z</time>
      </trkpt>
      <trkpt lat="44.72751" lon="1.235">
        <ele>123</ele>
        <time>2018-05-02T18:22:44Z</time>
      </trkpt>
      <trkpt lat="44.72721" lon="1.2344">
        <ele>119</ele>
        <time>2018-05-02T18:22:48Z</time>
      </trkpt>
      <trkpt lat="44.7268" lon="1.23373">
        <ele>117</ele>
        <time>2018-05-02T18:22:52Z</time>
      </trkpt>
      <trkpt lat="44.72647" lon="1.23296">
        <ele>117</ele>
        <time>2018-05-02T18:22:56Z</time>
      </trkpt>
      <trkpt lat="44.72643" lon="1.23197">
        <ele>118</ele>
        <time>2018-05-02T18:23:00Z</time>
      </trkpt>
      <trkpt lat="44.72639" lon="1.23109">
        <ele>116</ele>
        <time>2018-05-02T18:23:04Z</time>
      </trkpt>
      <trkpt lat="44.72621" lon="1.23051">
        <ele>116</ele>
        <time>2018-05-02T18:23:08Z</time>
      </trkpt>
      <trkpt lat="44.72595" lon="1.23011">
        <ele>113</ele>
        <time>2018-05-02T18:23:12Z</time>
      </trkpt>
      <trkpt lat="44.7261" lon="1.22971">
        <ele>111</ele>
        <time>2018-05-02T18:23:16Z</time>
      </trkpt>
      <trkpt lat="44.72633" lon="1.22892">
        <ele>111</ele>
        <time>2018-05-02T18:23:20Z</time>
      </trkpt>
      <trkpt lat="44.72664" lon="1.22805">
        <ele>110</ele>
        <time>2018-05-02T18:23:24Z</time>
      </trkpt>
      <trkpt lat="44.727" lon="1.2272">
        <ele>111</ele>
        <time>2018-05-02T18:23:28Z</time>
      </trkpt>
      <trkpt lat="44.72726" lon="1.22629">
        <ele>113</ele>
        <time>2018-05-02T18:23:32Z</time>
      </trkpt>
      <trkpt lat="44.7272" lon="1.22544">
        <ele>115</ele>
        <time>2018-05-02T18:23:36Z</time>
      </trkpt>
      <trkpt lat="44.72673" lon="1.22477">
        <ele>116</ele>
        <time>2018-05-02T18:23:40Z</time>
      </trkpt>
      <trkpt lat="44.72622" lon="1.22409">
        <ele>117</ele>
        <time>2018-05-02T18:23:44Z</time>
      </trkpt>
      <trkpt lat="44.72578" lon="1.2233">
        <ele>115</ele>
        <time>2018-05-02T18:23:48Z</time>
      </trkpt>
      <trkpt lat="44.7255" lon="1.22241">
        <ele>114</ele>
        <time>2018-05-02T18:23:52Z</time>
      </trkpt>
      <trkpt lat="44.72522" lon="1.22164">
        <ele>115</ele>
        <time>2018-05-02T18:23:56Z</time>
      </trkpt>
      <trkpt lat="44.72496" lon="1.22117">
        <ele>114</ele>
        <time>2018-05-02T18:24:00Z</time>
      </trkpt>
      <trkpt lat="44.72495" lon="1.22085">
        <ele>113</ele>
        <time>2018-05-02T18:24:04Z</time>
      </trkpt>
      <trkpt lat="44.72517" lon="1.22068">
        <ele>113</ele>
        <time>2018-05-02T18:24:08Z</time>
      </trkpt>
      <trkpt lat="44.72551" lon="1.22047">
        <ele>114</ele>
        <time>2018-05-02T18:24:12Z</time>
      </trkpt>
      <trkpt lat="44.72575" lon="1.22018">
        <ele>113</ele>
        <time>2018-05-02T18:24:16Z</time>
      </trkpt>
    </trkseg>
  </trk>
</gpx>